sensor_id;sensor_type;location;lat;lon;timestamp;P1;durP1;ratioP1;P2;durP2;ratioP2
79702;SDS011;69172;52.352;5.006;2023-09-08T00:00:58;12.07;;;6.93;;
79702;SDS011;69172;52.352;5.006;2023-09-08T00:03:23;10.93;;;6.78;;
79702;SDS011;69172;52.352;5.006;2023-09-08T00:05:49;10.98;;;6.78;;
79702;SDS011;69172;52.352;5.006;2023-09-08T00:08:16;13.95;;;7.13;;
79702;SDS011;69172;52.352;5.006;2023-09-08T00:10:41;10.88;;;6.07;;
79702;SDS011;69172;52.352;5.006;2023-09-08T00:13:06;11.55;;;7.47;;
79702;SDS011;69172;52.352;5.006;2023-09-08T00:15:35;10.80;;;6.63;;
79702;SDS011;69172;52.352;5.006;2023-09-08T00:18:01;12.77;;;7.47;;
79702;SDS011;69172;52.352;5.006;2023-09-08T00:20:27;15.10;;;7.03;;
79702;SDS011;69172;52.352;5.006;2023-09-08T00:22:52;11.05;;;6.95;;
79702;SDS011;69172;52.352;5.006;2023-09-08T00:25:17;13.40;;;7.97;;
79702;SDS011;69172;52.352;5.006;2023-09-08T00:27:49;13.60;;;7.57;;
79702;SDS011;69172;52.352;5.006;2023-09-08T00:30:14;11.27;;;6.60;;
79702;SDS011;69172;52.352;5.006;2023-09-08T00:32:40;12.18;;;7.53;;
79702;SDS011;69172;52.352;5.006;2023-09-08T00:35:05;13.18;;;7.97;;
79702;SDS011;69172;52.352;5.006;2023-09-08T00:37:33;14.43;;;7.32;;
79702;SDS011;69172;52.352;5.006;2023-09-08T00:39:58;19.95;;;7.78;;
79702;SDS011;69172;52.352;5.006;2023-09-08T00:42:24;12.73;;;8.32;;
79702;SDS011;69172;52.352;5.006;2023-09-08T00:44:49;13.00;;;7.95;;
79702;SDS011;69172;52.352;5.006;2023-09-08T00:47:15;13.38;;;7.53;;
79702;SDS011;69172;52.352;5.006;2023-09-08T00:49:40;12.50;;;7.70;;
79702;SDS011;69172;52.352;5.006;2023-09-08T00:52:06;13.40;;;8.45;;
79702;SDS011;69172;52.352;5.006;2023-09-08T00:54:31;13.02;;;8.13;;
79702;SDS011;69172;52.352;5.006;2023-09-08T00:56:57;12.50;;;8.32;;
79702;SDS011;69172;52.352;5.006;2023-09-08T00:59:22;13.20;;;8.45;;
79702;SDS011;69172;52.352;5.006;2023-09-08T01:01:48;14.98;;;8.45;;
79702;SDS011;69172;52.352;5.006;2023-09-08T01:04:13;12.15;;;7.80;;
79702;SDS011;69172;52.352;5.006;2023-09-08T01:06:39;14.07;;;8.60;;
79702;SDS011;69172;52.352;5.006;2023-09-08T01:09:04;14.35;;;9.15;;
79702;SDS011;69172;52.352;5.006;2023-09-08T01:11:32;12.73;;;8.52;;
79702;SDS011;69172;52.352;5.006;2023-09-08T01:13:59;16.15;;;8.10;;
79702;SDS011;69172;52.352;5.006;2023-09-08T01:16:24;17.67;;;9.43;;
79702;SDS011;69172;52.352;5.006;2023-09-08T01:18:49;12.95;;;8.43;;
79702;SDS011;69172;52.352;5.006;2023-09-08T01:24:34;14.98;;;9.05;;
79702;SDS011;69172;52.352;5.006;2023-09-08T01:27:11;16.33;;;9.00;;
79702;SDS011;69172;52.352;5.006;2023-09-08T01:29:40;15.52;;;9.25;;
79702;SDS011;69172;52.352;5.006;2023-09-08T01:32:07;14.60;;;8.65;;
79702;SDS011;69172;52.352;5.006;2023-09-08T01:34:33;13.50;;;9.20;;
79702;SDS011;69172;52.352;5.006;2023-09-08T01:37:01;16.33;;;9.93;;
79702;SDS011;69172;52.352;5.006;2023-09-08T01:39:31;13.88;;;8.85;;
79702;SDS011;69172;52.352;5.006;2023-09-08T01:42:10;13.57;;;8.65;;
79702;SDS011;69172;52.352;5.006;2023-09-08T01:44:43;15.65;;;8.60;;
79702;SDS011;69172;52.352;5.006;2023-09-08T01:47:15;14.57;;;8.85;;
79702;SDS011;69172;52.352;5.006;2023-09-08T01:52:48;16.20;;;10.00;;
79702;SDS011;69172;52.352;5.006;2023-09-08T01:55:14;14.07;;;9.32;;
79702;SDS011;69172;52.352;5.006;2023-09-08T01:57:47;16.90;;;9.73;;
79702;SDS011;69172;52.352;5.006;2023-09-08T02:00:13;15.15;;;9.00;;
79702;SDS011;69172;52.352;5.006;2023-09-08T02:02:38;17.77;;;10.75;;
79702;SDS011;69172;52.352;5.006;2023-09-08T02:05:04;16.98;;;10.30;;
79702;SDS011;69172;52.352;5.006;2023-09-08T02:07:30;15.05;;;10.07;;
79702;SDS011;69172;52.352;5.006;2023-09-08T02:09:56;17.20;;;9.63;;
79702;SDS011;69172;52.352;5.006;2023-09-08T02:12:22;15.32;;;9.38;;
79702;SDS011;69172;52.352;5.006;2023-09-08T02:14:47;16.10;;;9.43;;
79702;SDS011;69172;52.352;5.006;2023-09-08T02:17:12;17.38;;;10.07;;
79702;SDS011;69172;52.352;5.006;2023-09-08T02:19:38;14.88;;;9.55;;
79702;SDS011;69172;52.352;5.006;2023-09-08T02:22:03;14.07;;;9.50;;
79702;SDS011;69172;52.352;5.006;2023-09-08T02:24:30;14.98;;;9.65;;
79702;SDS011;69172;52.352;5.006;2023-09-08T02:26:56;15.75;;;10.50;;
79702;SDS011;69172;52.352;5.006;2023-09-08T02:29:22;14.27;;;9.70;;
79702;SDS011;69172;52.352;5.006;2023-09-08T02:31:47;15.13;;;10.05;;
79702;SDS011;69172;52.352;5.006;2023-09-08T02:34:14;17.05;;;10.40;;
79702;SDS011;69172;52.352;5.006;2023-09-08T02:36:41;17.95;;;10.13;;
79702;SDS011;69172;52.352;5.006;2023-09-08T02:39:06;17.95;;;10.43;;
79702;SDS011;69172;52.352;5.006;2023-09-08T02:41:32;15.23;;;9.88;;
79702;SDS011;69172;52.352;5.006;2023-09-08T02:44:04;16.75;;;10.25;;
79702;SDS011;69172;52.352;5.006;2023-09-08T02:46:29;19.90;;;10.45;;
79702;SDS011;69172;52.352;5.006;2023-09-08T02:48:57;14.05;;;9.57;;
79702;SDS011;69172;52.352;5.006;2023-09-08T02:51:22;13.80;;;10.20;;
79702;SDS011;69172;52.352;5.006;2023-09-08T02:53:48;15.38;;;9.65;;
79702;SDS011;69172;52.352;5.006;2023-09-08T02:56:13;15.15;;;9.93;;
79702;SDS011;69172;52.352;5.006;2023-09-08T02:58:38;15.15;;;9.82;;
79702;SDS011;69172;52.352;5.006;2023-09-08T03:01:14;16.42;;;10.32;;
79702;SDS011;69172;52.352;5.006;2023-09-08T03:03:41;16.50;;;10.32;;
79702;SDS011;69172;52.352;5.006;2023-09-08T03:06:08;17.13;;;10.63;;
79702;SDS011;69172;52.352;5.006;2023-09-08T03:08:35;19.30;;;10.57;;
79702;SDS011;69172;52.352;5.006;2023-09-08T03:11:02;15.95;;;10.32;;
79702;SDS011;69172;52.352;5.006;2023-09-08T03:13:28;17.23;;;10.55;;
79702;SDS011;69172;52.352;5.006;2023-09-08T03:15:54;17.30;;;10.88;;
79702;SDS011;69172;52.352;5.006;2023-09-08T03:18:21;17.67;;;11.18;;
79702;SDS011;69172;52.352;5.006;2023-09-08T03:20:50;18.02;;;10.40;;
79702;SDS011;69172;52.352;5.006;2023-09-08T03:23:15;18.63;;;10.73;;
79702;SDS011;69172;52.352;5.006;2023-09-08T03:25:41;17.00;;;11.27;;
79702;SDS011;69172;52.352;5.006;2023-09-08T03:28:07;18.60;;;11.38;;
79702;SDS011;69172;52.352;5.006;2023-09-08T03:30:33;15.07;;;10.48;;
79702;SDS011;69172;52.352;5.006;2023-09-08T03:32:58;17.40;;;10.73;;
79702;SDS011;69172;52.352;5.006;2023-09-08T03:35:23;15.98;;;10.88;;
79702;SDS011;69172;52.352;5.006;2023-09-08T03:37:49;18.02;;;10.75;;
79702;SDS011;69172;52.352;5.006;2023-09-08T03:40:14;14.80;;;10.50;;
79702;SDS011;69172;52.352;5.006;2023-09-08T03:42:39;16.92;;;11.05;;
79702;SDS011;69172;52.352;5.006;2023-09-08T03:45:07;16.98;;;10.48;;
79702;SDS011;69172;52.352;5.006;2023-09-08T03:47:32;18.40;;;11.65;;
79702;SDS011;69172;52.352;5.006;2023-09-08T03:49:58;18.40;;;11.18;;
79702;SDS011;69172;52.352;5.006;2023-09-08T03:52:23;16.98;;;11.65;;
79702;SDS011;69172;52.352;5.006;2023-09-08T03:54:49;16.80;;;10.75;;
79702;SDS011;69172;52.352;5.006;2023-09-08T03:57:15;20.60;;;13.57;;
79702;SDS011;69172;52.352;5.006;2023-09-08T03:59:40;18.38;;;11.43;;
79702;SDS011;69172;52.352;5.006;2023-09-08T04:02:06;15.73;;;10.90;;
79702;SDS011;69172;52.352;5.006;2023-09-08T04:04:31;17.08;;;11.68;;
79702;SDS011;69172;52.352;5.006;2023-09-08T04:06:57;21.10;;;11.85;;
79702;SDS011;69172;52.352;5.006;2023-09-08T04:09:23;17.55;;;10.68;;
79702;SDS011;69172;52.352;5.006;2023-09-08T04:11:48;18.77;;;11.65;;
79702;SDS011;69172;52.352;5.006;2023-09-08T04:14:14;18.70;;;10.93;;
79702;SDS011;69172;52.352;5.006;2023-09-08T04:16:39;16.75;;;11.15;;
79702;SDS011;69172;52.352;5.006;2023-09-08T04:19:04;22.08;;;11.60;;
79702;SDS011;69172;52.352;5.006;2023-09-08T04:21:30;18.70;;;11.48;;
79702;SDS011;69172;52.352;5.006;2023-09-08T04:23:55;17.52;;;11.25;;
79702;SDS011;69172;52.352;5.006;2023-09-08T04:26:23;19.73;;;11.63;;
79702;SDS011;69172;52.352;5.006;2023-09-08T04:28:48;17.67;;;11.30;;
79702;SDS011;69172;52.352;5.006;2023-09-08T04:31:15;18.00;;;12.57;;
79702;SDS011;69172;52.352;5.006;2023-09-08T04:33:43;16.83;;;11.15;;
79702;SDS011;69172;52.352;5.006;2023-09-08T04:36:19;18.20;;;11.35;;
79702;SDS011;69172;52.352;5.006;2023-09-08T04:41:11;17.75;;;10.73;;
79702;SDS011;69172;52.352;5.006;2023-09-08T04:43:37;17.58;;;11.70;;
79702;SDS011;69172;52.352;5.006;2023-09-08T04:46:02;18.05;;;11.38;;
79702;SDS011;69172;52.352;5.006;2023-09-08T04:48:28;20.15;;;11.38;;
79702;SDS011;69172;52.352;5.006;2023-09-08T04:50:56;19.98;;;11.85;;
79702;SDS011;69172;52.352;5.006;2023-09-08T04:53:21;19.73;;;11.65;;
79702;SDS011;69172;52.352;5.006;2023-09-08T04:55:47;17.63;;;10.93;;
79702;SDS011;69172;52.352;5.006;2023-09-08T04:58:12;19.33;;;12.18;;
79702;SDS011;69172;52.352;5.006;2023-09-08T05:00:38;17.52;;;11.57;;
79702;SDS011;69172;52.352;5.006;2023-09-08T05:03:05;19.50;;;11.70;;
79702;SDS011;69172;52.352;5.006;2023-09-08T05:05:30;20.75;;;12.32;;
79702;SDS011;69172;52.352;5.006;2023-09-08T05:07:56;20.98;;;11.85;;
79702;SDS011;69172;52.352;5.006;2023-09-08T05:10:22;19.65;;;11.57;;
79702;SDS011;69172;52.352;5.006;2023-09-08T05:12:48;17.52;;;11.20;;
79702;SDS011;69172;52.352;5.006;2023-09-08T05:15:14;18.50;;;11.60;;
79702;SDS011;69172;52.352;5.006;2023-09-08T05:17:41;18.63;;;11.32;;
79702;SDS011;69172;52.352;5.006;2023-09-08T05:20:08;19.60;;;11.35;;
79702;SDS011;69172;52.352;5.006;2023-09-08T05:22:34;20.65;;;11.95;;
79702;SDS011;69172;52.352;5.006;2023-09-08T05:24:59;16.40;;;11.23;;
79702;SDS011;69172;52.352;5.006;2023-09-08T05:27:25;18.00;;;11.02;;
79702;SDS011;69172;52.352;5.006;2023-09-08T05:29:50;19.17;;;11.52;;
79702;SDS011;69172;52.352;5.006;2023-09-08T05:32:16;17.35;;;10.88;;
79702;SDS011;69172;52.352;5.006;2023-09-08T05:34:41;19.27;;;12.23;;
79702;SDS011;69172;52.352;5.006;2023-09-08T05:37:07;20.95;;;11.80;;
79702;SDS011;69172;52.352;5.006;2023-09-08T05:39:33;17.13;;;10.80;;
79702;SDS011;69172;52.352;5.006;2023-09-08T05:41:59;18.33;;;10.82;;
79702;SDS011;69172;52.352;5.006;2023-09-08T05:44:24;18.95;;;11.85;;
79702;SDS011;69172;52.352;5.006;2023-09-08T05:46:50;18.38;;;11.02;;
79702;SDS011;69172;52.352;5.006;2023-09-08T05:49:15;17.38;;;11.52;;
79702;SDS011;69172;52.352;5.006;2023-09-08T05:51:44;17.95;;;11.30;;
79702;SDS011;69172;52.352;5.006;2023-09-08T05:54:09;17.65;;;11.98;;
79702;SDS011;69172;52.352;5.006;2023-09-08T05:56:36;18.13;;;11.15;;
79702;SDS011;69172;52.352;5.006;2023-09-08T05:59:03;17.67;;;12.05;;
79702;SDS011;69172;52.352;5.006;2023-09-08T06:01:30;19.77;;;11.85;;
79702;SDS011;69172;52.352;5.006;2023-09-08T06:03:56;19.60;;;11.90;;
79702;SDS011;69172;52.352;5.006;2023-09-08T06:06:22;20.05;;;11.50;;
79702;SDS011;69172;52.352;5.006;2023-09-08T06:08:47;18.48;;;12.23;;
79702;SDS011;69172;52.352;5.006;2023-09-08T06:11:13;17.65;;;12.07;;
79702;SDS011;69172;52.352;5.006;2023-09-08T06:13:38;19.17;;;12.52;;
79702;SDS011;69172;52.352;5.006;2023-09-08T06:16:04;22.55;;;12.30;;
79702;SDS011;69172;52.352;5.006;2023-09-08T06:18:29;19.63;;;12.50;;
79702;SDS011;69172;52.352;5.006;2023-09-08T06:21:00;19.88;;;12.82;;
79702;SDS011;69172;52.352;5.006;2023-09-08T06:23:25;19.15;;;12.13;;
79702;SDS011;69172;52.352;5.006;2023-09-08T06:25:50;18.20;;;12.20;;
79702;SDS011;69172;52.352;5.006;2023-09-08T06:28:16;20.58;;;13.55;;
79702;SDS011;69172;52.352;5.006;2023-09-08T06:30:41;19.20;;;13.20;;
79702;SDS011;69172;52.352;5.006;2023-09-08T06:33:08;19.33;;;12.30;;
79702;SDS011;69172;52.352;5.006;2023-09-08T06:35:34;19.80;;;12.68;;
79702;SDS011;69172;52.352;5.006;2023-09-08T06:38:00;18.67;;;12.45;;
79702;SDS011;69172;52.352;5.006;2023-09-08T06:40:25;17.98;;;12.98;;
79702;SDS011;69172;52.352;5.006;2023-09-08T06:42:51;22.42;;;13.07;;
79702;SDS011;69172;52.352;5.006;2023-09-08T06:45:17;19.55;;;12.88;;
79702;SDS011;69172;52.352;5.006;2023-09-08T06:47:42;20.65;;;13.07;;
79702;SDS011;69172;52.352;5.006;2023-09-08T06:50:09;21.23;;;13.32;;
79702;SDS011;69172;52.352;5.006;2023-09-08T06:52:35;20.83;;;14.23;;
79702;SDS011;69172;52.352;5.006;2023-09-08T06:55:09;20.90;;;14.57;;
79702;SDS011;69172;52.352;5.006;2023-09-08T06:57:34;22.73;;;14.15;;
79702;SDS011;69172;52.352;5.006;2023-09-08T07:00:00;17.35;;;13.10;;
79702;SDS011;69172;52.352;5.006;2023-09-08T07:02:25;23.63;;;13.93;;
79702;SDS011;69172;52.352;5.006;2023-09-08T07:04:51;19.05;;;13.52;;
79702;SDS011;69172;52.352;5.006;2023-09-08T07:07:16;19.40;;;12.98;;
79702;SDS011;69172;52.352;5.006;2023-09-08T07:09:44;19.52;;;14.57;;
79702;SDS011;69172;52.352;5.006;2023-09-08T07:12:09;25.17;;;13.65;;
79702;SDS011;69172;52.352;5.006;2023-09-08T07:14:36;23.15;;;14.95;;
79702;SDS011;69172;52.352;5.006;2023-09-08T07:17:03;20.52;;;13.52;;
79702;SDS011;69172;52.352;5.006;2023-09-08T07:19:29;21.20;;;14.88;;
79702;SDS011;69172;52.352;5.006;2023-09-08T07:21:54;21.48;;;15.20;;
79702;SDS011;69172;52.352;5.006;2023-09-08T07:24:20;22.85;;;15.02;;
79702;SDS011;69172;52.352;5.006;2023-09-08T07:26:47;21.48;;;13.80;;
79702;SDS011;69172;52.352;5.006;2023-09-08T07:29:13;21.60;;;14.38;;
79702;SDS011;69172;52.352;5.006;2023-09-08T07:31:41;22.27;;;14.70;;
79702;SDS011;69172;52.352;5.006;2023-09-08T07:34:07;20.63;;;13.65;;
79702;SDS011;69172;52.352;5.006;2023-09-08T07:36:33;22.10;;;15.00;;
79702;SDS011;69172;52.352;5.006;2023-09-08T07:39:00;21.73;;;14.73;;
79702;SDS011;69172;52.352;5.006;2023-09-08T07:41:26;23.45;;;15.57;;
79702;SDS011;69172;52.352;5.006;2023-09-08T07:43:51;22.08;;;14.60;;
79702;SDS011;69172;52.352;5.006;2023-09-08T07:46:17;25.08;;;15.18;;
79702;SDS011;69172;52.352;5.006;2023-09-08T07:48:42;21.80;;;14.63;;
79702;SDS011;69172;52.352;5.006;2023-09-08T07:51:07;19.85;;;14.27;;
79702;SDS011;69172;52.352;5.006;2023-09-08T07:53:33;20.98;;;14.77;;
79702;SDS011;69172;52.352;5.006;2023-09-08T07:55:58;21.25;;;14.70;;
79702;SDS011;69172;52.352;5.006;2023-09-08T07:58:25;21.73;;;15.48;;
79702;SDS011;69172;52.352;5.006;2023-09-08T08:00:51;22.55;;;15.65;;
79702;SDS011;69172;52.352;5.006;2023-09-08T08:03:16;22.00;;;15.05;;
79702;SDS011;69172;52.352;5.006;2023-09-08T08:05:42;23.15;;;15.20;;
79702;SDS011;69172;52.352;5.006;2023-09-08T08:08:07;22.33;;;14.95;;
79702;SDS011;69172;52.352;5.006;2023-09-08T08:10:34;21.58;;;15.00;;
79702;SDS011;69172;52.352;5.006;2023-09-08T08:13:00;22.73;;;15.23;;
79702;SDS011;69172;52.352;5.006;2023-09-08T08:15:39;24.27;;;16.08;;
79702;SDS011;69172;52.352;5.006;2023-09-08T08:18:05;23.40;;;14.13;;
79702;SDS011;69172;52.352;5.006;2023-09-08T08:20:31;21.15;;;14.70;;
79702;SDS011;69172;52.352;5.006;2023-09-08T08:23:00;20.98;;;14.48;;
79702;SDS011;69172;52.352;5.006;2023-09-08T08:25:27;22.75;;;15.77;;
79702;SDS011;69172;52.352;5.006;2023-09-08T08:27:53;21.42;;;15.35;;
79702;SDS011;69172;52.352;5.006;2023-09-08T08:30:18;20.88;;;15.13;;
79702;SDS011;69172;52.352;5.006;2023-09-08T08:32:44;22.05;;;14.43;;
79702;SDS011;69172;52.352;5.006;2023-09-08T08:35:09;22.23;;;15.05;;
79702;SDS011;69172;52.352;5.006;2023-09-08T08:37:35;24.25;;;16.05;;
79702;SDS011;69172;52.352;5.006;2023-09-08T08:40:00;20.58;;;15.27;;
79702;SDS011;69172;52.352;5.006;2023-09-08T08:42:32;19.67;;;13.55;;
79702;SDS011;69172;52.352;5.006;2023-09-08T08:44:58;22.67;;;15.27;;
79702;SDS011;69172;52.352;5.006;2023-09-08T08:47:25;22.02;;;15.30;;
79702;SDS011;69172;52.352;5.006;2023-09-08T08:49:53;18.60;;;14.05;;
79702;SDS011;69172;52.352;5.006;2023-09-08T08:52:20;19.10;;;13.85;;
79702;SDS011;69172;52.352;5.006;2023-09-08T08:54:47;21.48;;;15.23;;
79702;SDS011;69172;52.352;5.006;2023-09-08T08:57:12;23.50;;;17.02;;
79702;SDS011;69172;52.352;5.006;2023-09-08T08:59:38;25.67;;;17.45;;
79702;SDS011;69172;52.352;5.006;2023-09-08T09:02:06;21.52;;;16.42;;
79702;SDS011;69172;52.352;5.006;2023-09-08T09:04:41;21.27;;;15.57;;
79702;SDS011;69172;52.352;5.006;2023-09-08T09:07:07;21.17;;;15.55;;
79702;SDS011;69172;52.352;5.006;2023-09-08T09:09:33;21.48;;;16.17;;
79702;SDS011;69172;52.352;5.006;2023-09-08T09:11:58;24.33;;;16.20;;
79702;SDS011;69172;52.352;5.006;2023-09-08T09:14:24;23.20;;;16.30;;
79702;SDS011;69172;52.352;5.006;2023-09-08T09:16:50;28.50;;;17.08;;
79702;SDS011;69172;52.352;5.006;2023-09-08T09:19:19;23.05;;;16.33;;
79702;SDS011;69172;52.352;5.006;2023-09-08T09:21:50;23.25;;;15.95;;
79702;SDS011;69172;52.352;5.006;2023-09-08T09:24:32;25.30;;;16.42;;
79702;SDS011;69172;52.352;5.006;2023-09-08T09:27:07;19.90;;;15.50;;
79702;SDS011;69172;52.352;5.006;2023-09-08T09:29:33;22.42;;;15.25;;
79702;SDS011;69172;52.352;5.006;2023-09-08T09:32:03;20.92;;;15.38;;
79702;SDS011;69172;52.352;5.006;2023-09-08T09:34:32;22.77;;;15.68;;
79702;SDS011;69172;52.352;5.006;2023-09-08T09:36:57;21.63;;;16.33;;
79702;SDS011;69172;52.352;5.006;2023-09-08T09:39:24;22.17;;;15.20;;
79702;SDS011;69172;52.352;5.006;2023-09-08T09:41:56;23.02;;;15.70;;
79702;SDS011;69172;52.352;5.006;2023-09-08T09:44:23;20.25;;;14.63;;
79702;SDS011;69172;52.352;5.006;2023-09-08T09:46:51;20.65;;;14.38;;
79702;SDS011;69172;52.352;5.006;2023-09-08T09:49:18;23.67;;;15.25;;
79702;SDS011;69172;52.352;5.006;2023-09-08T09:51:44;20.42;;;14.85;;
79702;SDS011;69172;52.352;5.006;2023-09-08T09:54:13;20.38;;;14.07;;
79702;SDS011;69172;52.352;5.006;2023-09-08T09:56:40;20.27;;;14.80;;
79702;SDS011;69172;52.352;5.006;2023-09-08T09:59:08;19.02;;;13.07;;
79702;SDS011;69172;52.352;5.006;2023-09-08T10:01:35;20.25;;;13.68;;
79702;SDS011;69172;52.352;5.006;2023-09-08T10:04:01;19.40;;;14.40;;
79702;SDS011;69172;52.352;5.006;2023-09-08T10:06:32;21.95;;;15.02;;
79702;SDS011;69172;52.352;5.006;2023-09-08T10:09:02;19.40;;;13.80;;
79702;SDS011;69172;52.352;5.006;2023-09-08T10:11:35;18.13;;;13.07;;
79702;SDS011;69172;52.352;5.006;2023-09-08T10:14:08;19.90;;;13.57;;
79702;SDS011;69172;52.352;5.006;2023-09-08T10:16:38;20.83;;;13.27;;
79702;SDS011;69172;52.352;5.006;2023-09-08T10:19:07;19.45;;;13.32;;
79702;SDS011;69172;52.352;5.006;2023-09-08T10:21:36;19.33;;;13.63;;
79702;SDS011;69172;52.352;5.006;2023-09-08T10:24:09;16.92;;;12.07;;
79702;SDS011;69172;52.352;5.006;2023-09-08T10:26:40;21.13;;;13.50;;
79702;SDS011;69172;52.352;5.006;2023-09-08T10:29:11;20.40;;;14.23;;
79702;SDS011;69172;52.352;5.006;2023-09-08T10:31:38;19.70;;;12.13;;
79702;SDS011;69172;52.352;5.006;2023-09-08T10:34:04;22.17;;;13.95;;
79702;SDS011;69172;52.352;5.006;2023-09-08T10:36:30;19.73;;;13.98;;
79702;SDS011;69172;52.352;5.006;2023-09-08T10:39:27;17.65;;;12.88;;
79702;SDS011;69172;52.352;5.006;2023-09-08T10:44:41;17.33;;;13.00;;
79702;SDS011;69172;52.352;5.006;2023-09-08T10:47:24;18.15;;;12.27;;
79702;SDS011;69172;52.352;5.006;2023-09-08T10:49:53;13.85;;;9.77;;
79702;SDS011;69172;52.352;5.006;2023-09-08T10:52:22;14.73;;;9.80;;
79702;SDS011;69172;52.352;5.006;2023-09-08T10:54:49;16.02;;;10.25;;
79702;SDS011;69172;52.352;5.006;2023-09-08T10:57:25;19.75;;;11.35;;
79702;SDS011;69172;52.352;5.006;2023-09-08T10:59:52;15.43;;;9.80;;
79702;SDS011;69172;52.352;5.006;2023-09-08T11:05:13;14.75;;;9.85;;
79702;SDS011;69172;52.352;5.006;2023-09-08T11:07:40;14.82;;;9.57;;
79702;SDS011;69172;52.352;5.006;2023-09-08T11:10:09;14.00;;;9.23;;
79702;SDS011;69172;52.352;5.006;2023-09-08T11:12:37;14.75;;;9.73;;
79702;SDS011;69172;52.352;5.006;2023-09-08T11:15:03;15.00;;;9.90;;
79702;SDS011;69172;52.352;5.006;2023-09-08T11:17:31;12.55;;;8.38;;
79702;SDS011;69172;52.352;5.006;2023-09-08T11:19:57;13.07;;;8.32;;
79702;SDS011;69172;52.352;5.006;2023-09-08T11:22:25;14.50;;;8.48;;
79702;SDS011;69172;52.352;5.006;2023-09-08T11:24:53;14.48;;;8.98;;
79702;SDS011;69172;52.352;5.006;2023-09-08T11:27:22;12.30;;;8.23;;
79702;SDS011;69172;52.352;5.006;2023-09-08T11:29:48;12.80;;;8.20;;
79702;SDS011;69172;52.352;5.006;2023-09-08T11:32:16;14.88;;;8.48;;
79702;SDS011;69172;52.352;5.006;2023-09-08T11:34:41;12.02;;;8.52;;
79702;SDS011;69172;52.352;5.006;2023-09-08T11:37:11;12.93;;;7.25;;
79702;SDS011;69172;52.352;5.006;2023-09-08T11:39:39;14.10;;;8.35;;
79702;SDS011;69172;52.352;5.006;2023-09-08T11:42:05;10.80;;;7.05;;
79702;SDS011;69172;52.352;5.006;2023-09-08T11:44:33;13.82;;;7.45;;
79702;SDS011;69172;52.352;5.006;2023-09-08T11:47:04;11.52;;;7.15;;
79702;SDS011;69172;52.352;5.006;2023-09-08T11:49:38;11.57;;;7.32;;
79702;SDS011;69172;52.352;5.006;2023-09-08T11:52:05;14.80;;;8.15;;
79702;SDS011;69172;52.352;5.006;2023-09-08T11:54:32;12.52;;;7.53;;
79702;SDS011;69172;52.352;5.006;2023-09-08T11:57:00;11.30;;;6.50;;
79702;SDS011;69172;52.352;5.006;2023-09-08T11:59:30;14.50;;;7.72;;
79702;SDS011;69172;52.352;5.006;2023-09-08T12:01:57;15.93;;;9.98;;
79702;SDS011;69172;52.352;5.006;2023-09-08T12:04:23;16.02;;;8.88;;
79702;SDS011;69172;52.352;5.006;2023-09-08T12:06:49;13.05;;;6.63;;
79702;SDS011;69172;52.352;5.006;2023-09-08T12:09:17;11.95;;;6.63;;
79702;SDS011;69172;52.352;5.006;2023-09-08T12:11:46;10.60;;;6.55;;
79702;SDS011;69172;52.352;5.006;2023-09-08T12:14:12;14.15;;;8.38;;
79702;SDS011;69172;52.352;5.006;2023-09-08T12:16:39;10.73;;;6.65;;
79702;SDS011;69172;52.352;5.006;2023-09-08T12:19:05;13.63;;;6.50;;
79702;SDS011;69172;52.352;5.006;2023-09-08T12:21:31;13.48;;;7.93;;
79702;SDS011;69172;52.352;5.006;2023-09-08T12:24:01;15.68;;;8.38;;
79702;SDS011;69172;52.352;5.006;2023-09-08T12:26:28;14.90;;;8.90;;
79702;SDS011;69172;52.352;5.006;2023-09-08T12:28:55;13.90;;;8.35;;
79702;SDS011;69172;52.352;5.006;2023-09-08T12:31:20;12.90;;;6.75;;
79702;SDS011;69172;52.352;5.006;2023-09-08T12:33:47;11.63;;;7.32;;
79702;SDS011;69172;52.352;5.006;2023-09-08T12:36:16;24.60;;;14.43;;
79702;SDS011;69172;52.352;5.006;2023-09-08T12:38:54;9.75;;;5.70;;
79702;SDS011;69172;52.352;5.006;2023-09-08T12:41:20;10.18;;;5.50;;
79702;SDS011;69172;52.352;5.006;2023-09-08T12:43:46;26.60;;;18.50;;
79702;SDS011;69172;52.352;5.006;2023-09-08T12:46:11;16.73;;;9.27;;
79702;SDS011;69172;52.352;5.006;2023-09-08T12:48:37;15.77;;;9.73;;
79702;SDS011;69172;52.352;5.006;2023-09-08T12:51:03;14.50;;;8.45;;
79702;SDS011;69172;52.352;5.006;2023-09-08T12:53:34;13.50;;;8.13;;
79702;SDS011;69172;52.352;5.006;2023-09-08T12:56:03;14.50;;;9.93;;
79702;SDS011;69172;52.352;5.006;2023-09-08T12:58:30;14.65;;;9.13;;
79702;SDS011;69172;52.352;5.006;2023-09-08T13:00:55;12.95;;;7.55;;
79702;SDS011;69172;52.352;5.006;2023-09-08T13:03:27;24.38;;;16.52;;
79702;SDS011;69172;52.352;5.006;2023-09-08T13:05:53;10.82;;;7.25;;
79702;SDS011;69172;52.352;5.006;2023-09-08T13:08:25;11.98;;;7.65;;
79702;SDS011;69172;52.352;5.006;2023-09-08T13:10:50;13.35;;;9.10;;
79702;SDS011;69172;52.352;5.006;2023-09-08T13:13:16;14.82;;;7.82;;
79702;SDS011;69172;52.352;5.006;2023-09-08T13:15:42;17.45;;;11.05;;
79702;SDS011;69172;52.352;5.006;2023-09-08T13:18:08;24.55;;;16.25;;
79702;SDS011;69172;52.352;5.006;2023-09-08T13:20:33;15.30;;;8.77;;
79702;SDS011;69172;52.352;5.006;2023-09-08T13:22:58;13.95;;;8.70;;
79702;SDS011;69172;52.352;5.006;2023-09-08T13:25:24;12.35;;;7.28;;
79702;SDS011;69172;52.352;5.006;2023-09-08T13:27:49;13.07;;;7.22;;
79702;SDS011;69172;52.352;5.006;2023-09-08T13:30:16;13.48;;;7.90;;
79702;SDS011;69172;52.352;5.006;2023-09-08T13:32:42;9.90;;;6.45;;
79702;SDS011;69172;52.352;5.006;2023-09-08T13:35:07;19.23;;;11.32;;
79702;SDS011;69172;52.352;5.006;2023-09-08T13:37:33;17.83;;;14.65;;
79702;SDS011;69172;52.352;5.006;2023-09-08T13:40:03;11.40;;;7.03;;
79702;SDS011;69172;52.352;5.006;2023-09-08T13:42:29;12.32;;;6.70;;
79702;SDS011;69172;52.352;5.006;2023-09-08T13:44:54;10.60;;;6.50;;
79702;SDS011;69172;52.352;5.006;2023-09-08T13:47:20;11.60;;;6.70;;
79702;SDS011;69172;52.352;5.006;2023-09-08T13:49:45;12.73;;;6.95;;
79702;SDS011;69172;52.352;5.006;2023-09-08T13:52:11;10.57;;;6.28;;
79702;SDS011;69172;52.352;5.006;2023-09-08T13:54:36;13.13;;;5.95;;
79702;SDS011;69172;52.352;5.006;2023-09-08T13:57:03;12.00;;;5.85;;
79702;SDS011;69172;52.352;5.006;2023-09-08T13:59:29;11.50;;;7.10;;
79702;SDS011;69172;52.352;5.006;2023-09-08T14:01:55;9.82;;;6.65;;
79702;SDS011;69172;52.352;5.006;2023-09-08T14:04:22;13.57;;;6.10;;
79702;SDS011;69172;52.352;5.006;2023-09-08T14:06:49;12.55;;;6.53;;
79702;SDS011;69172;52.352;5.006;2023-09-08T14:09:14;11.75;;;6.25;;
79702;SDS011;69172;52.352;5.006;2023-09-08T14:11:41;11.57;;;6.40;;
79702;SDS011;69172;52.352;5.006;2023-09-08T14:14:07;17.48;;;9.68;;
79702;SDS011;69172;52.352;5.006;2023-09-08T14:16:32;12.05;;;7.93;;
79702;SDS011;69172;52.352;5.006;2023-09-08T14:18:58;17.45;;;13.57;;
79702;SDS011;69172;52.352;5.006;2023-09-08T14:21:23;11.55;;;7.05;;
79702;SDS011;69172;52.352;5.006;2023-09-08T14:23:49;11.07;;;6.57;;
79702;SDS011;69172;52.352;5.006;2023-09-08T14:26:14;11.75;;;6.68;;
79702;SDS011;69172;52.352;5.006;2023-09-08T14:28:41;13.40;;;6.78;;
79702;SDS011;69172;52.352;5.006;2023-09-08T14:31:07;10.73;;;5.85;;
79702;SDS011;69172;52.352;5.006;2023-09-08T14:33:33;10.00;;;6.72;;
79702;SDS011;69172;52.352;5.006;2023-09-08T14:35:59;9.48;;;6.07;;
79702;SDS011;69172;52.352;5.006;2023-09-08T14:38:25;8.13;;;5.38;;